createdAt,value
2022-12-31T00:01:44.621Z,4
2022-12-31T00:06:46.685Z,4
2022-12-31T00:11:48.760Z,4.1
2022-12-31T00:16:51.048Z,4.1
2022-12-31T00:21:53.139Z,4
2022-12-31T00:26:55.355Z,4
2022-12-31T00:31:57.525Z,4
2022-12-31T00:36:59.611Z,4
2022-12-31T00:42:01.751Z,4
2022-12-31T00:47:03.815Z,3.9
2022-12-31T00:52:05.904Z,4
2022-12-31T00:57:08.015Z,4
2022-12-31T01:02:11.039Z,4.1
2022-12-31T01:07:13.460Z,4
2022-12-31T01:12:15.606Z,4.1
2022-12-31T01:17:17.688Z,4.1
2022-12-31T01:22:20.119Z,4
2022-12-31T01:27:22.582Z,4
2022-12-31T01:32:25.291Z,4.1
2022-12-31T01:37:27.352Z,4.1
2022-12-31T01:42:29.576Z,4.2
2022-12-31T01:47:31.591Z,4.2
2022-12-31T01:52:33.723Z,4.2
2022-12-31T01:57:35.898Z,4.2
2022-12-31T02:02:38.596Z,4.2
2022-12-31T02:07:41.290Z,4.2
2022-12-31T02:12:43.532Z,4.3
2022-12-31T02:17:45.656Z,4.3
2022-12-31T02:22:47.962Z,4.2
2022-12-31T02:27:50.367Z,4.3
2022-12-31T02:32:52.527Z,4.3
2022-12-31T02:37:54.580Z,4.4
2022-12-31T02:42:57.845Z,4.5
2022-12-31T02:47:59.936Z,4.4
2022-12-31T02:53:01.961Z,4.4
2022-12-31T02:58:04.032Z,4.4
2022-12-31T03:03:06.249Z,4.5
2022-12-31T03:08:08.485Z,4.5
2022-12-31T03:13:10.659Z,4.5
2022-12-31T03:18:12.682Z,4.6
2022-12-31T03:23:14.775Z,4.5
2022-12-31T03:28:17.013Z,4.5
2022-12-31T03:33:19.249Z,4.5
2022-12-31T03:38:21.330Z,4.5
2022-12-31T03:43:24.143Z,4.6
2022-12-31T03:48:26.204Z,4.6
2022-12-31T03:53:28.483Z,4.5
2022-12-31T03:58:30.601Z,4.6
2022-12-31T04:03:32.934Z,4.5
2022-12-31T04:08:34.962Z,4.5
2022-12-31T04:13:37.139Z,4.5
2022-12-31T04:18:39.237Z,4.5
2022-12-31T04:23:41.381Z,4.5
2022-12-31T04:28:43.431Z,4.5
2022-12-31T04:33:45.686Z,4.6
2022-12-31T04:38:47.699Z,4.7
2022-12-31T04:43:49.913Z,4.8
2022-12-31T04:48:51.999Z,4.8
2022-12-31T04:53:54.494Z,4.8
2022-12-31T04:58:57.153Z,4.8
2022-12-31T05:03:59.290Z,4.8
2022-12-31T05:09:01.839Z,4.7
2022-12-31T05:14:04.201Z,4.7
2022-12-31T05:19:06.259Z,4.7
2022-12-31T05:24:08.478Z,4.6
2022-12-31T05:29:11.042Z,4.5
2022-12-31T05:34:13.119Z,4.5
2022-12-31T05:39:15.325Z,4.5
2022-12-31T05:44:17.379Z,4.3
2022-12-31T05:49:19.431Z,4.1
2022-12-31T05:54:21.556Z,3.9
2022-12-31T05:59:30.164Z,3.7
2022-12-31T06:04:32.203Z,3.7
2022-12-31T06:09:34.276Z,3.5
2022-12-31T06:14:45.510Z,3.2
2022-12-31T06:19:38.346Z,3.2
2022-12-31T06:24:40.386Z,3.2
2022-12-31T06:29:42.452Z,3.4
2022-12-31T06:34:44.606Z,3.5
2022-12-31T06:39:46.644Z,3.6
2022-12-31T06:44:48.659Z,3.9
2022-12-31T06:49:51.351Z,4.6
2022-12-31T06:54:53.331Z,4.5
2022-12-31T06:59:55.444Z,5
2022-12-31T07:04:57.506Z,5.2
2022-12-31T07:09:59.600Z,5.9
2022-12-31T07:15:01.768Z,6.8
2022-12-31T07:20:03.795Z,7.8
2022-12-31T07:25:05.838Z,7.6
2022-12-31T07:30:08.476Z,8
2022-12-31T07:35:10.849Z,7.9
2022-12-31T07:40:12.901Z,7.6
2022-12-31T07:45:15.558Z,7.8
2022-12-31T07:50:17.687Z,7.7
2022-12-31T07:55:20.029Z,8.4
2022-12-31T08:00:22.283Z,8.8
2022-12-31T08:05:24.577Z,9.3
2022-12-31T08:10:26.723Z,10.4
2022-12-31T08:15:32.591Z,10
2022-12-31T08:20:34.810Z,10
2022-12-31T08:25:37.015Z,9.5
2022-12-31T08:30:39.084Z,9
2022-12-31T08:35:41.713Z,10.3
2022-12-31T08:40:43.736Z,10.5
2022-12-31T08:45:46.801Z,15.2
2022-12-31T08:50:48.984Z,15.1
2022-12-31T08:55:50.961Z,13
2022-12-31T09:00:53.318Z,13.5
2022-12-31T09:05:55.338Z,15.7
2022-12-31T09:10:57.310Z,18.5
2022-12-31T09:15:59.435Z,21
2022-12-31T09:21:01.434Z,21.6
2022-12-31T09:26:03.465Z,19.9
2022-12-31T09:31:05.594Z,17.6
2022-12-31T09:36:07.798Z,14.1
2022-12-31T09:41:09.845Z,12.5
2022-12-31T09:46:12.637Z,10.5
2022-12-31T09:51:25.929Z,10.4
2022-12-31T09:56:22.187Z,10.9
2022-12-31T10:01:24.929Z,12.3
2022-12-31T10:06:27.076Z,12.2
2022-12-31T10:11:29.090Z,15.4
2022-12-31T10:16:31.087Z,16.5
2022-12-31T10:21:33.094Z,14.9
2022-12-31T10:26:35.084Z,14.6
2022-12-31T10:31:37.160Z,13.5
2022-12-31T10:36:39.311Z,12.7
2022-12-31T10:41:41.405Z,12
2022-12-31T10:46:43.529Z,11.8
2022-12-31T10:51:45.544Z,11.8
2022-12-31T10:56:47.620Z,12.2
2022-12-31T11:01:50.226Z,12.3
2022-12-31T11:06:52.412Z,12.3
2022-12-31T11:11:54.444Z,13.6
2022-12-31T11:16:56.671Z,15.5
2022-12-31T11:21:58.763Z,16
2022-12-31T11:27:00.688Z,14.8
2022-12-31T11:32:02.739Z,13.7
2022-12-31T11:37:04.881Z,13.3
2022-12-31T11:42:06.842Z,13.2
2022-12-31T11:47:08.775Z,13.1
2022-12-31T11:52:10.836Z,13.2
2022-12-31T11:57:12.780Z,13.2
2022-12-31T12:02:15.331Z,14.1
2022-12-31T12:07:17.295Z,14.1
2022-12-31T12:12:19.364Z,15.3
2022-12-31T12:17:21.363Z,14.5
2022-12-31T12:22:23.323Z,14.3
2022-12-31T12:27:25.265Z,14.3
2022-12-31T12:32:27.175Z,13.9
2022-12-31T12:37:29.211Z,13.8
2022-12-31T12:42:32.266Z,14.1
2022-12-31T12:47:34.357Z,14.1
2022-12-31T12:52:36.369Z,14.6
2022-12-31T12:57:38.769Z,14.7
2022-12-31T13:02:41.387Z,14.8
2022-12-31T13:07:43.511Z,14.8
2022-12-31T13:13:26.166Z,14.5
2022-12-31T13:18:02.020Z,14.7
2022-12-31T13:22:59.379Z,15.5
2022-12-31T13:28:02.505Z,15.5
2022-12-31T13:33:04.600Z,16.3
2022-12-31T13:38:07.884Z,18.5
2022-12-31T13:43:09.993Z,18.4
2022-12-31T13:48:11.912Z,17.1
2022-12-31T13:53:13.846Z,16.2
2022-12-31T13:58:15.771Z,15.7
2022-12-31T14:03:18.192Z,15.3
2022-12-31T14:08:20.175Z,15.2
2022-12-31T14:13:22.245Z,14.9
2022-12-31T14:18:24.472Z,14.9
2022-12-31T14:23:26.511Z,14.8
2022-12-31T14:28:28.512Z,14.8
2022-12-31T14:33:30.755Z,14.6
2022-12-31T14:38:32.908Z,14.5
2022-12-31T14:43:34.992Z,14.3
2022-12-31T14:53:37.512Z,14
2022-12-31T14:58:39.559Z,14
2022-12-31T15:03:47.551Z,13.7
2022-12-31T15:13:54.024Z,13.5
2022-12-31T15:18:56.837Z,13.5
2022-12-31T15:23:58.835Z,13.4
2022-12-31T15:29:00.857Z,13.4
2022-12-31T15:34:03.740Z,13.4
2022-12-31T15:39:06.452Z,13.3
2022-12-31T15:44:09.124Z,13.3
2022-12-31T15:49:17.471Z,13.2
2022-12-31T15:54:19.738Z,13.2
2022-12-31T15:59:21.962Z,13.2
2022-12-31T16:09:26.500Z,12.9
2022-12-31T16:14:29.071Z,12.6
2022-12-31T16:19:31.226Z,12.5
2022-12-31T16:24:35.178Z,12.5
2022-12-31T16:29:45.831Z,12.3
2022-12-31T16:34:47.254Z,12.2
2022-12-31T16:39:49.504Z,12.2
2022-12-31T16:44:54.452Z,12.2
2022-12-31T16:49:56.713Z,12.1
2022-12-31T16:54:58.951Z,12
2022-12-31T17:00:01.003Z,11.9
2022-12-31T17:05:03.148Z,11.7
2022-12-31T17:10:05.167Z,11.6
2022-12-31T17:15:07.259Z,11.5
2022-12-31T17:20:09.307Z,11.4
2022-12-31T17:25:11.318Z,11.3
2022-12-31T17:30:14.291Z,11.3
2022-12-31T17:35:16.328Z,11.3
2022-12-31T17:40:53.348Z,11.1
2022-12-31T17:45:25.698Z,11.1
2022-12-31T17:50:28.167Z,11.2
2022-12-31T17:55:30.242Z,11.2
2022-12-31T18:00:32.519Z,11.2
2022-12-31T18:05:34.976Z,11.2
2022-12-31T18:10:37.013Z,11.1
2022-12-31T18:15:39.227Z,11
2022-12-31T18:20:41.254Z,10.9
2022-12-31T18:30:53.414Z,10.7
2022-12-31T18:36:12.533Z,10.7
2022-12-31T18:41:04.871Z,10.7
2022-12-31T18:46:07.361Z,10.6
2022-12-31T18:51:09.408Z,10.6
2022-12-31T18:56:11.468Z,10.5
2022-12-31T19:01:14.070Z,10.5
2022-12-31T19:06:16.836Z,10.5
2022-12-31T19:11:18.906Z,10.4
2022-12-31T19:16:21.234Z,10.5
2022-12-31T19:21:23.370Z,10.5
2022-12-31T19:26:25.523Z,10.5
2022-12-31T19:31:28.262Z,10.6
2022-12-31T19:36:30.413Z,10.5
2022-12-31T19:41:32.616Z,10.6
2022-12-31T19:46:34.690Z,10.5
2022-12-31T19:51:36.672Z,10.5
2022-12-31T19:56:38.743Z,10.5
2022-12-31T20:01:41.762Z,10.6
2022-12-31T20:06:44.250Z,10.6
2022-12-31T20:11:46.467Z,10.6
2022-12-31T20:16:49.028Z,10.6
2022-12-31T20:21:51.753Z,10.6
2022-12-31T20:26:53.869Z,10.6
2022-12-31T20:31:56.837Z,10.8
2022-12-31T20:36:58.924Z,10.7
2022-12-31T20:42:01.053Z,10.6
2022-12-31T20:47:03.439Z,10.5
2022-12-31T20:52:05.678Z,10.5
2022-12-31T20:57:08.525Z,10.5
2022-12-31T21:02:41.866Z,10.4
2022-12-31T21:07:17.386Z,10.4
2022-12-31T21:12:19.506Z,10.3
2022-12-31T21:17:21.650Z,10.4
2022-12-31T21:22:23.841Z,10.4
2022-12-31T21:27:25.903Z,10.3
2022-12-31T21:32:28.101Z,10.1
2022-12-31T21:38:01.758Z,10
2022-12-31T21:42:34.074Z,10
2022-12-31T21:47:48.472Z,10.1
2022-12-31T21:52:40.605Z,10
2022-12-31T21:58:32.880Z,10.3
2022-12-31T22:03:01.555Z,10.3
2022-12-31T22:07:53.978Z,10.3
2022-12-31T22:12:56.651Z,10.4
2022-12-31T22:17:58.960Z,10.3
2022-12-31T22:23:01.016Z,10.4
2022-12-31T22:28:40.888Z,10.4
2022-12-31T22:33:12.927Z,10.4
2022-12-31T22:38:14.838Z,10.3
2022-12-31T22:43:17.329Z,10.2
2022-12-31T22:48:19.298Z,10.2
2022-12-31T22:53:21.504Z,10.2
2022-12-31T22:58:23.524Z,10.1
2022-12-31T23:03:25.591Z,10.1
2022-12-31T23:08:27.834Z,10
2022-12-31T23:13:29.934Z,10.2
2022-12-31T23:18:31.998Z,10.1
2022-12-31T23:23:33.936Z,10.1
2022-12-31T23:28:35.933Z,10.2
2022-12-31T23:33:37.959Z,10.1
2022-12-31T23:38:40.174Z,10.2
2022-12-31T23:43:42.261Z,10.1
2022-12-31T23:48:44.244Z,10.1
2022-12-31T23:53:46.240Z,10.2
2022-12-31T23:58:48.308Z,10.2
